createdAt,value
2018-09-10T00:00:12.548Z,1.20
2018-09-10T00:02:39.748Z,1.23
2018-09-10T00:05:06.930Z,1.20
2018-09-10T00:07:34.172Z,1.20
2018-09-10T00:10:01.340Z,1.10
2018-09-10T00:12:28.577Z,1.10
2018-09-10T00:14:55.856Z,1.20
2018-09-10T00:17:23.062Z,1.20
2018-09-10T00:19:50.244Z,1.10
2018-09-10T00:22:17.480Z,1.20
2018-09-10T00:24:44.628Z,1.03
2018-09-10T00:27:11.904Z,1.10
2018-09-10T00:29:39.145Z,1.10
2018-09-10T00:32:06.328Z,1.20
2018-09-10T00:34:33.564Z,1.03
2018-09-10T00:37:00.781Z,1.33
2018-09-10T00:39:28.632Z,0.97
2018-09-10T00:41:55.890Z,1.00
2018-09-10T00:44:23.089Z,1.00
2018-09-10T00:46:50.360Z,1.10
2018-09-10T00:49:17.602Z,0.80
2018-09-10T00:51:44.832Z,1.33
2018-09-10T00:54:12.052Z,1.10
2018-09-10T00:56:40.101Z,1.30
2018-09-10T00:59:07.348Z,1.10
2018-09-10T01:01:34.541Z,1.07
2018-09-10T01:04:01.732Z,1.00
2018-09-10T01:06:28.994Z,1.20
2018-09-10T01:08:56.246Z,1.30
2018-09-10T01:11:23.815Z,0.90
2018-09-10T01:13:51.088Z,1.30
2018-09-10T01:16:18.844Z,1.63
2018-09-10T01:18:46.141Z,1.40
2018-09-10T01:21:13.407Z,1.30
2018-09-10T01:23:40.676Z,1.17
2018-09-10T01:26:07.888Z,1.10
2018-09-10T01:28:35.084Z,1.00
2018-09-10T01:31:02.322Z,1.40
2018-09-10T01:33:35.477Z,1.00
2018-09-10T01:36:02.685Z,1.10
2018-09-10T01:38:29.933Z,1.30
2018-09-10T01:40:57.124Z,1.20
2018-09-10T01:43:24.388Z,1.33
2018-09-10T01:45:51.548Z,1.80
2018-09-10T01:48:19.020Z,1.20
2018-09-10T01:50:46.184Z,1.33
2018-09-10T01:53:14.135Z,1.30
2018-09-10T01:55:41.325Z,1.37
2018-09-10T01:58:08.594Z,1.40
2018-09-10T02:00:35.894Z,1.60
2018-09-10T02:03:03.209Z,1.30
2018-09-10T02:05:30.657Z,1.37
2018-09-10T02:07:57.905Z,1.20
2018-09-10T02:10:25.180Z,1.70
2018-09-10T02:12:52.402Z,1.20
2018-09-10T02:15:19.584Z,1.40
2018-09-10T02:17:46.800Z,1.10
2018-09-10T02:20:14.054Z,1.23
2018-09-10T02:22:41.165Z,1.10
2018-09-10T02:25:08.533Z,1.20
2018-09-10T02:27:35.801Z,1.30
2018-09-10T02:30:03.372Z,2.03
2018-09-10T02:32:30.592Z,1.53
2018-09-10T02:34:57.812Z,1.33
2018-09-10T02:37:25.060Z,1.73
2018-09-10T02:39:52.352Z,1.13
2018-09-10T02:42:19.569Z,1.33
2018-09-10T02:44:46.856Z,1.43
2018-09-10T02:47:14.028Z,1.23
2018-09-10T02:49:41.209Z,1.23
2018-09-10T02:52:08.485Z,1.50
2018-09-10T02:54:35.672Z,1.50
2018-09-10T02:57:03.187Z,1.20
2018-09-10T02:59:30.449Z,1.57
2018-09-10T03:01:57.638Z,1.83
2018-09-10T03:04:24.880Z,1.50
2018-09-10T03:06:52.119Z,1.77
2018-09-10T03:09:19.420Z,1.50
2018-09-10T03:11:46.706Z,1.17
2018-09-10T03:14:14.174Z,1.70
2018-09-10T03:16:41.524Z,1.60
2018-09-10T03:19:08.680Z,1.27
2018-09-10T03:21:35.916Z,1.80
2018-09-10T03:24:03.297Z,1.70
2018-09-10T03:26:30.460Z,1.27
2018-09-10T03:28:57.629Z,1.70
2018-09-10T03:31:24.896Z,1.30
2018-09-10T03:33:52.064Z,1.53
2018-09-10T03:36:19.269Z,1.40
2018-09-10T03:38:46.448Z,1.50
2018-09-10T03:41:13.645Z,1.97
2018-09-10T03:43:40.916Z,1.70
2018-09-10T03:46:08.144Z,1.80
2018-09-10T03:48:35.302Z,1.60
2018-09-10T03:51:02.671Z,1.50
2018-09-10T03:53:29.841Z,1.80
2018-09-10T03:55:57.136Z,1.70
2018-09-10T03:58:24.384Z,1.50
2018-09-10T04:00:51.641Z,1.47
2018-09-10T04:03:18.881Z,1.70
2018-09-10T04:05:46.097Z,1.37
2018-09-10T04:08:13.294Z,1.53
2018-09-10T04:10:40.632Z,1.27
2018-09-10T04:13:07.928Z,1.30
2018-09-10T04:15:35.120Z,1.60
2018-09-10T04:18:02.411Z,1.70
2018-09-10T04:20:29.625Z,1.60
2018-09-10T04:22:56.800Z,1.50
2018-09-10T04:25:24.018Z,1.20
2018-09-10T04:27:51.224Z,1.50
2018-09-10T04:30:18.493Z,1.40
2018-09-10T04:32:45.670Z,1.53
2018-09-10T04:35:12.844Z,1.30
2018-09-10T04:37:40.417Z,1.67
2018-09-10T04:40:07.773Z,1.27
2018-09-10T04:42:35.005Z,1.43
2018-09-10T04:45:02.474Z,1.60
2018-09-10T04:47:29.657Z,1.47
2018-09-10T04:49:57.012Z,1.53
2018-09-10T04:52:24.220Z,1.50
2018-09-10T04:54:51.423Z,1.83
2018-09-10T04:57:18.630Z,1.70
2018-09-10T04:59:46.008Z,1.80
2018-09-10T05:02:13.204Z,1.40
2018-09-10T05:04:40.576Z,2.07
2018-09-10T05:07:07.956Z,1.53
2018-09-10T05:09:35.201Z,1.40
2018-09-10T05:12:02.428Z,1.47
2018-09-10T05:14:29.664Z,1.80
2018-09-10T05:16:56.848Z,1.77
2018-09-10T05:19:24.050Z,2.20
2018-09-10T05:21:51.239Z,1.57
2018-09-10T05:24:18.482Z,1.47
2018-09-10T05:26:46.034Z,1.60
2018-09-10T05:29:13.348Z,1.60
2018-09-10T05:31:40.560Z,1.40
2018-09-10T05:34:07.824Z,1.70
2018-09-10T05:36:34.971Z,1.77
2018-09-10T05:39:02.293Z,2.27
2018-09-10T05:41:29.509Z,1.80
2018-09-10T05:43:56.752Z,1.90
2018-09-10T05:46:24.016Z,1.80
2018-09-10T05:48:51.273Z,1.90
2018-09-10T05:51:18.649Z,9.47
2018-09-10T05:53:45.965Z,13.60
2018-09-10T05:56:13.192Z,15.27
2018-09-10T05:58:40.383Z,4.00
2018-09-10T06:01:07.780Z,1.80
2018-09-10T06:03:35.096Z,1.90
2018-09-10T06:06:02.391Z,2.13
2018-09-10T06:08:30.133Z,2.43
2018-09-10T06:10:57.431Z,1.97
2018-09-10T06:13:25.051Z,1.67
2018-09-10T06:15:52.610Z,2.07
2018-09-10T06:18:19.866Z,2.40
2018-09-10T06:20:47.140Z,2.43
2018-09-10T06:23:14.361Z,2.40
2018-09-10T06:25:41.696Z,2.60
2018-09-10T06:28:08.888Z,3.13
2018-09-10T06:30:36.163Z,2.97
2018-09-10T06:33:03.372Z,2.30
2018-09-10T06:35:30.557Z,2.50
2018-09-10T06:37:57.785Z,2.90
2018-09-10T06:40:25.025Z,3.23
2018-09-10T06:42:52.285Z,2.73
2018-09-10T06:45:19.546Z,2.87
2018-09-10T06:47:46.764Z,2.60
2018-09-10T06:50:13.996Z,3.07
2018-09-10T06:52:41.215Z,2.47
2018-09-10T06:55:08.996Z,3.00
2018-09-10T06:57:36.199Z,2.70
2018-09-10T07:00:03.648Z,2.80
2018-09-10T07:02:30.828Z,2.80
2018-09-10T07:04:58.077Z,2.50
2018-09-10T07:07:25.378Z,2.13
2018-09-10T07:09:52.548Z,2.60
2018-09-10T07:12:19.773Z,2.10
2018-09-10T07:14:47.076Z,2.10
2018-09-10T07:17:14.361Z,2.40
2018-09-10T07:19:41.556Z,2.30
2018-09-10T07:22:08.727Z,2.33
2018-09-10T07:24:35.980Z,2.73
2018-09-10T07:27:03.221Z,2.60
2018-09-10T07:29:30.434Z,2.67
2018-09-10T07:31:58.724Z,3.00
2018-09-10T07:34:25.964Z,2.60
2018-09-10T07:36:53.176Z,3.30
2018-09-10T07:39:20.380Z,2.60
2018-09-10T07:41:47.596Z,3.27
2018-09-10T07:44:14.856Z,2.70
2018-09-10T07:46:42.008Z,2.60
2018-09-10T07:49:09.265Z,3.17
2018-09-10T07:51:36.521Z,3.20
2018-09-10T07:54:03.801Z,3.30
2018-09-10T07:56:31.008Z,3.00
2018-09-10T07:58:58.277Z,3.63
2018-09-10T08:01:25.465Z,3.20
2018-09-10T08:03:52.692Z,3.37
2018-09-10T08:06:19.963Z,3.13
2018-09-10T08:08:47.222Z,3.00
2018-09-10T08:11:15.101Z,3.33
2018-09-10T08:13:42.345Z,3.20
2018-09-10T08:16:09.584Z,3.50
2018-09-10T08:18:36.898Z,3.43
2018-09-10T08:21:04.276Z,3.53
2018-09-10T08:23:31.532Z,3.17
2018-09-10T08:25:58.739Z,4.03
2018-09-10T08:28:25.944Z,3.80
2018-09-10T08:30:53.155Z,3.77
2018-09-10T08:33:20.424Z,3.93
2018-09-10T08:35:47.633Z,3.57
2018-09-10T08:38:14.971Z,3.50
2018-09-10T08:40:42.156Z,3.27
2018-09-10T08:43:09.345Z,3.70
2018-09-10T08:45:36.621Z,3.30
2018-09-10T08:48:03.950Z,2.87
2018-09-10T08:50:32.068Z,4.40
2018-09-10T08:52:59.400Z,3.23
2018-09-10T08:55:26.779Z,3.63
2018-09-10T08:57:53.860Z,3.17
2018-09-10T09:00:21.186Z,3.27
2018-09-10T09:02:48.484Z,3.43
2018-09-10T09:05:15.693Z,2.73
2018-09-10T09:07:42.920Z,3.93
2018-09-10T09:10:10.191Z,4.50
2018-09-10T09:12:37.480Z,4.80
2018-09-10T09:15:04.792Z,4.57
2018-09-10T09:17:33.354Z,5.10
2018-09-10T09:20:00.527Z,4.90
2018-09-10T09:22:27.763Z,6.03
2018-09-10T09:24:55.037Z,4.60
2018-09-10T09:27:22.386Z,4.30
2018-09-10T09:29:49.671Z,4.67
2018-09-10T09:32:16.861Z,4.10
2018-09-10T09:34:49.832Z,3.70
2018-09-10T09:37:22.837Z,4.13
2018-09-10T09:39:55.844Z,3.70
2018-09-10T09:42:28.697Z,3.60
2018-09-10T09:45:01.708Z,2.97
2018-09-10T09:47:29.112Z,3.37
2018-09-10T09:49:56.998Z,3.93
2018-09-10T09:52:24.264Z,3.63
2018-09-10T09:54:51.437Z,3.47
2018-09-10T09:57:18.671Z,3.63
2018-09-10T09:59:46.137Z,3.23
2018-09-10T10:02:24.183Z,3.10
2018-09-10T10:04:51.364Z,3.33
2018-09-10T10:07:18.545Z,3.50
2018-09-10T10:09:45.745Z,3.60
2018-09-10T10:12:13.072Z,3.90
2018-09-10T10:14:40.232Z,3.40
2018-09-10T10:17:07.469Z,3.17
2018-09-10T10:19:34.707Z,3.43
2018-09-10T10:22:01.995Z,2.70
2018-09-10T10:24:29.196Z,3.23
2018-09-10T10:26:56.424Z,2.97
2018-09-10T10:29:23.631Z,3.37
2018-09-10T10:31:50.924Z,2.70
2018-09-10T10:34:18.141Z,2.70
2018-09-10T10:36:45.433Z,2.80
2018-09-10T10:39:12.684Z,3.20
2018-09-10T10:41:39.889Z,2.50
2018-09-10T10:44:07.101Z,3.10
2018-09-10T10:46:34.290Z,3.17
2018-09-10T10:49:01.568Z,3.17
2018-09-10T10:51:28.798Z,2.73
2018-09-10T10:53:56.018Z,2.33
2018-09-10T10:56:23.240Z,3.43
2018-09-10T10:58:50.746Z,2.40
2018-09-10T11:01:17.988Z,2.27
2018-09-10T11:03:45.203Z,2.30
2018-09-10T11:06:12.468Z,2.10
2018-09-10T11:08:39.701Z,1.93
2018-09-10T11:11:06.944Z,2.27
2018-09-10T11:13:34.146Z,2.40
2018-09-10T11:16:01.403Z,2.90
2018-09-10T11:18:28.604Z,2.20
2018-09-10T11:20:55.884Z,2.30
2018-09-10T11:23:23.054Z,2.30
2018-09-10T11:25:50.460Z,2.10
2018-09-10T11:28:17.682Z,1.93
2018-09-10T11:30:44.917Z,2.00
2018-09-10T11:33:12.176Z,2.00
2018-09-10T11:35:39.437Z,2.23
2018-09-10T11:38:06.952Z,2.23
2018-09-10T11:40:34.216Z,1.90
2018-09-10T11:43:01.461Z,2.13
2018-09-10T11:45:28.716Z,1.60
2018-09-10T11:47:56.056Z,2.20
2018-09-10T11:50:23.304Z,1.90
2018-09-10T11:52:50.597Z,2.07
2018-09-10T11:55:17.784Z,1.90
2018-09-10T11:57:45.550Z,2.10
2018-09-10T12:00:12.799Z,1.97
2018-09-10T12:02:39.984Z,1.83
2018-09-10T12:05:07.266Z,1.93
2018-09-10T12:07:34.493Z,2.30
2018-09-10T12:10:01.816Z,1.93
2018-09-10T12:12:29.014Z,1.60
2018-09-10T12:14:56.297Z,1.73
2018-09-10T12:17:23.620Z,2.33
2018-09-10T12:19:50.901Z,1.93
2018-09-10T12:22:18.216Z,1.70
2018-09-10T12:24:45.405Z,1.70
2018-09-10T12:27:12.652Z,2.07
2018-09-10T12:29:39.861Z,1.63
2018-09-10T12:32:07.104Z,1.70
2018-09-10T12:34:34.592Z,1.70
2018-09-10T12:37:01.773Z,1.70
2018-09-10T12:39:28.994Z,1.50
2018-09-10T12:41:56.157Z,2.00
2018-09-10T12:44:23.304Z,1.60
2018-09-10T12:46:50.488Z,1.97
2018-09-10T12:49:18.297Z,2.10
2018-09-10T12:51:45.556Z,2.10
2018-09-10T12:54:12.751Z,2.60
2018-09-10T12:56:39.892Z,1.93
2018-09-10T12:59:07.041Z,1.80
2018-09-10T13:01:34.269Z,1.70
2018-09-10T13:04:01.427Z,1.57
2018-09-10T13:06:28.617Z,2.20
2018-09-10T13:08:55.776Z,1.80
2018-09-10T13:11:23.173Z,1.90
2018-09-10T13:13:50.372Z,1.90
2018-09-10T13:16:17.617Z,1.83
2018-09-10T13:18:44.741Z,1.83
2018-09-10T13:21:11.901Z,1.50
2018-09-10T13:23:39.071Z,1.40
2018-09-10T13:26:06.265Z,1.60
2018-09-10T13:28:33.433Z,1.73
2018-09-10T13:31:00.597Z,1.70
2018-09-10T13:33:27.749Z,1.83
2018-09-10T13:35:54.913Z,1.33
2018-09-10T13:38:22.195Z,1.60
2018-09-10T13:40:49.352Z,1.63
2018-09-10T13:43:16.632Z,1.87
2018-09-10T13:45:43.759Z,1.80
2018-09-10T13:48:10.960Z,1.50
2018-09-10T13:50:38.159Z,1.90
2018-09-10T13:53:05.592Z,1.83
2018-09-10T13:55:32.748Z,1.60
2018-09-10T13:57:59.973Z,1.83
2018-09-10T14:00:27.204Z,1.50
2018-09-10T14:02:54.353Z,1.57
2018-09-10T14:05:21.548Z,1.30
2018-09-10T14:07:48.920Z,1.73
2018-09-10T14:10:16.264Z,2.00
2018-09-10T14:12:43.439Z,1.73
2018-09-10T14:15:10.627Z,1.60
2018-09-10T14:17:37.831Z,1.60
2018-09-10T14:20:05.065Z,2.00
2018-09-10T14:22:32.327Z,1.40
2018-09-10T14:24:59.489Z,1.90
2018-09-10T14:27:26.726Z,1.87
2018-09-10T14:29:53.839Z,1.90
2018-09-10T14:32:21.037Z,1.50
2018-09-10T14:34:48.258Z,1.60
2018-09-10T14:37:15.405Z,1.47
2018-09-10T14:39:42.545Z,1.67
2018-09-10T14:42:09.770Z,1.70
2018-09-10T14:44:37.109Z,1.90
2018-09-10T14:47:04.451Z,1.87
2018-09-10T14:49:31.602Z,1.87
2018-09-10T14:51:58.788Z,1.80
2018-09-10T14:54:25.992Z,2.03
2018-09-10T14:56:53.176Z,1.67
2018-09-10T14:59:20.345Z,1.90
2018-09-10T15:01:47.548Z,1.77
2018-09-10T15:04:14.759Z,1.80
2018-09-10T15:06:41.912Z,1.93
2018-09-10T15:09:09.391Z,1.50
2018-09-10T15:11:36.760Z,1.40
2018-09-10T15:14:03.968Z,2.40
2018-09-10T15:16:31.124Z,1.87
2018-09-10T15:18:58.385Z,1.83
2018-09-10T15:21:26.125Z,2.00
2018-09-10T15:23:53.377Z,2.47
2018-09-10T15:26:20.588Z,1.63
2018-09-10T15:28:47.821Z,1.60
2018-09-10T15:31:15.006Z,1.90
2018-09-10T15:33:42.181Z,1.90
2018-09-10T15:36:09.381Z,1.70
2018-09-10T15:38:36.545Z,1.77
2018-09-10T15:41:03.733Z,1.60
2018-09-10T15:43:31.012Z,1.80
2018-09-10T15:45:58.202Z,1.70
2018-09-10T15:48:25.372Z,1.60
2018-09-10T15:50:52.527Z,2.07
2018-09-10T15:53:19.786Z,1.60
2018-09-10T15:55:46.912Z,1.93
2018-09-10T15:58:14.092Z,1.97
2018-09-10T16:00:41.276Z,1.47
2018-09-10T16:03:08.448Z,1.87
2018-09-10T16:05:35.645Z,1.60
2018-09-10T16:08:02.937Z,1.90
2018-09-10T16:10:30.326Z,2.03
2018-09-10T16:12:57.504Z,1.50
2018-09-10T16:15:24.677Z,2.30
2018-09-10T16:17:51.840Z,1.80
2018-09-10T16:20:19.000Z,1.90
2018-09-10T16:22:46.234Z,1.80
2018-09-10T16:25:13.413Z,1.90
2018-09-10T16:27:40.617Z,1.80
2018-09-10T16:30:09.101Z,2.37
2018-09-10T16:32:36.281Z,2.30
2018-09-10T16:35:03.523Z,2.23
2018-09-10T16:37:30.701Z,2.43
2018-09-10T16:39:57.964Z,2.03
2018-09-10T16:42:25.149Z,2.10
2018-09-10T16:44:52.300Z,1.90
2018-09-10T16:47:19.489Z,1.73
2018-09-10T16:49:46.956Z,2.50
2018-09-10T16:52:14.136Z,2.10
2018-09-10T16:54:41.352Z,1.80
2018-09-10T16:57:08.572Z,1.37
2018-09-10T16:59:35.740Z,2.40
2018-09-10T17:02:03.040Z,1.80
2018-09-10T17:04:30.176Z,2.30
2018-09-10T17:06:57.401Z,2.00
2018-09-10T17:09:24.820Z,1.73
2018-09-10T17:11:52.063Z,1.80
2018-09-10T17:14:19.255Z,1.90
2018-09-10T17:16:46.545Z,2.57
2018-09-10T17:19:13.796Z,3.47
2018-09-10T17:21:41.091Z,4.10
2018-09-10T17:24:08.304Z,2.03
2018-09-10T17:26:35.609Z,1.90
2018-09-10T17:29:02.799Z,2.00
2018-09-10T17:31:29.983Z,2.37
2018-09-10T17:33:57.242Z,1.87
2018-09-10T17:36:24.437Z,1.73
2018-09-10T17:38:51.628Z,2.43
2018-09-10T17:41:18.845Z,2.20
2018-09-10T17:43:45.991Z,2.50
2018-09-10T17:46:13.560Z,2.50
2018-09-10T17:48:40.703Z,1.93
2018-09-10T17:51:07.892Z,3.10
2018-09-10T17:53:35.055Z,2.17
2018-09-10T17:56:02.248Z,2.00
2018-09-10T17:58:29.381Z,2.00
2018-09-10T18:00:56.688Z,3.33
2018-09-10T18:03:23.846Z,1.90
2018-09-10T18:05:50.981Z,1.97
2018-09-10T18:08:18.156Z,1.87
2018-09-10T18:10:45.486Z,1.80
2018-09-10T18:13:15.078Z,1.70
2018-09-10T18:15:42.330Z,2.30
2018-09-10T18:18:09.489Z,2.20
2018-09-10T18:20:36.750Z,1.90
2018-09-10T18:23:03.868Z,2.27
2018-09-10T18:25:31.202Z,2.17
2018-09-10T18:27:58.462Z,1.40
2018-09-10T18:30:25.617Z,2.10
2018-09-10T18:32:52.757Z,1.77
2018-09-10T18:35:20.048Z,2.17
2018-09-10T18:37:47.218Z,2.00
2018-09-10T18:40:14.409Z,1.70
2018-09-10T18:42:41.506Z,2.00
2018-09-10T18:45:08.721Z,1.97
2018-09-10T18:47:35.942Z,2.07
2018-09-10T18:50:03.152Z,1.80
2018-09-10T18:52:30.355Z,2.23
2018-09-10T18:54:57.552Z,2.07
2018-09-10T18:57:24.737Z,1.90
2018-09-10T18:59:51.864Z,2.70
2018-09-10T19:02:19.037Z,2.00
2018-09-10T19:04:48.240Z,2.00
2018-09-10T19:07:15.417Z,1.90
2018-09-10T19:09:42.623Z,3.33
2018-09-10T19:12:09.705Z,3.60
2018-09-10T19:14:36.889Z,2.10
2018-09-10T19:17:04.045Z,2.80
2018-09-10T19:19:31.280Z,2.20
2018-09-10T19:21:58.551Z,2.27
2018-09-10T19:24:25.780Z,2.00
2018-09-10T19:26:52.909Z,2.20
2018-09-10T19:29:20.091Z,1.77
2018-09-10T19:31:47.259Z,2.00
2018-09-10T19:34:14.401Z,2.63
2018-09-10T19:36:41.656Z,2.33
2018-09-10T19:39:09.726Z,2.13
2018-09-10T19:41:36.873Z,2.10
2018-09-10T19:44:04.052Z,2.50
2018-09-10T19:46:31.316Z,2.13
2018-09-10T19:48:58.522Z,2.57
2018-09-10T19:51:25.732Z,2.40
2018-09-10T19:53:52.872Z,1.90
2018-09-10T19:56:20.030Z,1.93
2018-09-10T19:58:47.236Z,2.50
2018-09-10T20:01:14.377Z,2.40
2018-09-10T20:03:41.537Z,2.47
2018-09-10T20:06:08.689Z,2.80
2018-09-10T20:08:35.828Z,2.60
2018-09-10T20:11:02.981Z,2.87
2018-09-10T20:13:30.214Z,5.60
2018-09-10T20:15:57.416Z,14.60
2018-09-10T20:18:24.616Z,12.27
2018-09-10T20:20:51.803Z,3.70
2018-09-10T20:23:18.954Z,3.07
2018-09-10T20:25:46.140Z,2.37
2018-09-10T20:28:13.309Z,2.10
2018-09-10T20:30:40.531Z,2.30
2018-09-10T20:33:07.671Z,2.30
2018-09-10T20:35:34.897Z,2.97
2018-09-10T20:38:02.096Z,2.60
2018-09-10T20:40:29.281Z,2.40
2018-09-10T20:42:56.554Z,2.43
2018-09-10T20:45:23.732Z,2.33
2018-09-10T20:47:50.952Z,2.40
2018-09-10T20:50:18.116Z,2.10
2018-09-10T20:52:45.382Z,2.50
2018-09-10T20:55:12.630Z,2.30
2018-09-10T20:57:39.852Z,2.27
2018-09-10T21:00:07.102Z,2.27
2018-09-10T21:02:34.263Z,2.97
2018-09-10T21:05:01.517Z,2.00
2018-09-10T21:07:28.725Z,3.60
2018-09-10T21:09:55.836Z,2.67
2018-09-10T21:12:22.988Z,2.87
2018-09-10T21:14:50.233Z,2.37
2018-09-10T21:17:17.518Z,2.13
2018-09-10T21:19:44.670Z,2.73
2018-09-10T21:22:11.852Z,2.60
2018-09-10T21:24:39.028Z,2.33
2018-09-10T21:27:06.194Z,2.87
2018-09-10T21:29:33.414Z,2.57
2018-09-10T21:32:00.668Z,2.13
2018-09-10T21:34:27.928Z,2.07
2018-09-10T21:36:55.149Z,2.30
2018-09-10T21:39:24.911Z,2.63
2018-09-10T21:41:52.552Z,2.37
2018-09-10T21:44:19.813Z,2.90
2018-09-10T21:46:47.047Z,3.30
2018-09-10T21:49:14.288Z,4.53
2018-09-10T21:51:41.528Z,4.50
2018-09-10T21:54:08.692Z,8.40
2018-09-10T21:56:35.950Z,7.53
2018-09-10T21:59:03.381Z,5.30
2018-09-10T22:01:30.620Z,6.40
2018-09-10T22:03:57.839Z,5.97
2018-09-10T22:06:25.037Z,6.23
2018-09-10T22:08:52.287Z,4.50
2018-09-10T22:11:19.572Z,2.63
2018-09-10T22:13:46.886Z,2.53
2018-09-10T22:16:14.080Z,2.70
2018-09-10T22:18:41.248Z,2.60
2018-09-10T22:21:08.507Z,2.27
2018-09-10T22:23:35.676Z,2.97
2018-09-10T22:26:02.925Z,2.97
2018-09-10T22:28:30.136Z,3.43
2018-09-10T22:30:57.311Z,2.67
2018-09-10T22:33:24.513Z,6.10
2018-09-10T22:35:51.801Z,3.77
2018-09-10T22:38:18.944Z,2.60
2018-09-10T22:40:46.149Z,2.60
2018-09-10T22:43:13.423Z,2.57
2018-09-10T22:45:40.618Z,2.47
2018-09-10T22:48:07.852Z,2.40
2018-09-10T22:50:36.044Z,2.57
2018-09-10T22:53:03.310Z,2.70
2018-09-10T22:55:30.548Z,2.60
2018-09-10T22:57:57.768Z,2.40
2018-09-10T23:00:24.979Z,2.60
2018-09-10T23:02:52.212Z,2.40
2018-09-10T23:05:19.431Z,2.20
2018-09-10T23:07:46.612Z,2.20
2018-09-10T23:10:13.844Z,2.10
2018-09-10T23:12:41.069Z,2.47
2018-09-10T23:15:08.302Z,2.60
2018-09-10T23:17:35.500Z,3.17
2018-09-10T23:20:02.934Z,2.30
2018-09-10T23:22:30.157Z,2.07
2018-09-10T23:24:57.428Z,2.20
2018-09-10T23:27:24.569Z,2.53
2018-09-10T23:29:51.774Z,2.37
2018-09-10T23:32:19.064Z,2.17
2018-09-10T23:34:46.240Z,2.40
2018-09-10T23:37:13.460Z,2.60
2018-09-10T23:39:40.669Z,2.30
2018-09-10T23:42:07.904Z,2.40
2018-09-10T23:44:35.850Z,2.80
2018-09-10T23:47:03.084Z,2.50
2018-09-10T23:49:30.292Z,2.17
2018-09-10T23:51:57.505Z,2.20
2018-09-10T23:54:24.719Z,2.50
2018-09-10T23:56:51.940Z,2.17
2018-09-10T23:59:19.184Z,2.33
